Timeline UpdatesTrip UpdatesNews PostsPvt PostsTravel TipsAdmin PostsConv PostsFollowed PostsChat RequestsBlog PostsPNR Posts

Disclaimer
Search
 
 
Thu Sep 18, 2014 13:11:43 ISTHomeTrainsΣChainsAtlasPNRForumGalleryNewsFAQTripsMembersLoginFeedback
No Recent News for this Train
Other Trains in the News **new
Latest...
Permanent Augmentation of 1 3A coach wef 10/4/14
Fri Apr 04, 2014 (07:10PM)
⇐ Return Journey: Train# 11058

11057/Mumbai LTT - Amritsar (Pathankot) Express

Time-Table HAS CHANGED.
Sep 04 (10:14PM)
Change Departure Station:
Change Arrival Station:
Post a Train Travel TipPost a Train Travel Tip **new
Post a Comment/Question/Picture/VideoPost a Comment/Question/Picture/Video
Pantry/Catering
✕ NO Pantry Car
✓ Catering Avbl
RSA - Rake Sharing
No RSA
Rake/Coach Composition
LOCO-SLR-GEN-GEN-MILITARY-A1-B3-B2-B1-S8-S7-S6-S5-S4-S3-S2-S1-RMS-LDS-[B4-S9-S10-SLR]. ; [B4-S9-S10-SLR] -> Is the Slip portion for Dhule and bifurcates from the main train at Chalisgaon.
Loco
LTT-UMB --> GZB WAP-1/4/5/7 UMB-ASR --> TKD WDM3A/WDP3A
News    PNR    Forum    Time-Table    Availability    Fare Chart    Map    Arr/Dep History    Trips    Gallery    ΣChains    X/O    Timeline    
Travel Time: 7h 9m    13 halts    Distance: 403 km    Avg Speed: 56 km/hr
Type: Mail/Express
Zone: CR/Central
Departs @ 20:38
Platform# 5
SMTWTFS
Jhansi Junction/JHS 
Arrives @ 03:47 +1 night
Platform# 3
SMTWTFS
Delhi Hazrat Nizamuddin/NZM 

13 halts. 52 intermediate Stations between Jhansi Junction and Delhi Hazrat Nizamuddin

Show ALL intermediate Stations  Show Old Time-Table

#CodeStation NameX/OArrivesAvgDepartsAvgHaltPFDay#KmSpeedElevZoneAddress
1LTTMumbai Lokmanya Tilak Terminus (5)  -23:45-31-1116.4437mCRMumbai - 400089, Maharashtra
2TNAThane (10)  00:07 00:08-00:10-3 2m72-1099.96110mCRThane (West) 400602, Maharashtra
3KYNKalyan Junction (8)  00:30-00:35 00:33-5 3m42-1079.76210mCRKalyan 421301, Maharashtra
4KSRAKasara (4)XO  01:43 01:38-01:45 01:40-2m12-1012.325290mCRDist. Thane 421602, Maharashtra
5IGPIgatpuri (4)X02:15-02:20-5m22-997.963589mCRIgatpuri 422403, Maharashtra
6DVLDevlali (3)X  03:08 03:03-03:10 03:05-2m12-953.069561mCRDist. Nashik 422401, Maharashtra
7NKNasik Road (3)XO  03:15 03:10-03:20 03:15-5m12-947.393563mCRNashik 422101, Maharashtra
8MMRManmad Junction (6)X  04:05 04:02-04:10 04:05-5 3m22-874.576580mCRManmad 423104, Maharashtra
9CSNChalisgaon Junction (3)X  05:03 04:58-05:05 05:00-2m--2-807.096352mCRChalisgaon 424101, Maharashtra
10PCPachora Junction (4)  05:33 05:28-05:35 05:30-2m--2-762.187264mCRPachora 424201, Maharashtra
11JLJalgaon Junction (4)X  06:08 06:03-06:10 06:05-2m32-714.458213mCRJalgaon 425001, Maharashtra
12BSLBhusaval Junction (8)X  06:40 06:30-06:50 06:45-10 15m62-690.351208mCRBhusaval 425201, Maharashtra
13SAVSavda (2)XO  07:03-07:05-2m--2-674.9105220mCRSavda, Maharashtra
14NBNimbhora (2)XO  07:13 07:10-07:15 07:12-2m--2-666.276229mCRJalgaon, Maharashtra
15RVRaver (2)X  07:23 07:20-07:25 07:22-2m--2-656.076242mCRJalgaon, Maharashtra
16BAUBurhanpur (2)  07:43 07:38-07:45 07:40-2m22-635.887269mCRBurhanpur, Madhya Pradesh
17NPNRNepanagar (2)X  08:03 07:58-08:05 08:00-2m--2-609.630289mCRState Highway 27, Madhya Pradesh
18KNWKhandwa Junction (5)X  09:35 09:25-09:40 09:30-5m22-567.041310mCRKhandwa, Madhya Pradesh
19TLVTalvadiya (2)XO  09:53-09:55-2m--2-551.299308mWCRKhandwa, Madhya Pradesh
20CAERChhanera (2)XO  10:13-10:15-2m--2-521.588283mWCRChhanera, Madhya Pradesh
21KKNKhirkiya (2)X  10:36-10:38-2m22-490.973281mWCRSH 15, Madhya Pradesh
22HDHarda (3)  11:04-11:06-2m--2-459.361289mWCRHarda, Madhya Pradesh
23TBNTimarni (2)  11:20-11:22-2m--2-445.240308mWCRTimarni, Madhya Pradesh
24BPFBanapura (2)  12:04-12:06-2m--2-417.051314mWCRBanapura, Madhya Pradesh
25ETItarsi Junction (7)X  12:50 12:45-12:55 12:50-5m12-383.568329mWCRItarsi 461111, Madhya Pradesh
26HBDHoshangabad (2)X  13:13 13:06-13:15 13:08-2m--2-365.442308mWCRHoshangabad, Madhya Pradesh
27BNIBudni (2)  13:25 13:18-13:27 13:20-2m--2-358.549311mWCRSehore 466445 Madhya pradesh, Madhya Pradesh
28ODGObaidulla GanjO  14:03 13:58-14:05 14:00-2m22-327.758 WCRObaidullaganj Raisen Dist., Madhya Pradesh
29MDDPMandi Dip (1)  14:19 14:14-14:21 14:16-2m12-314.257 WCRMandideep, Madhya Pradesh
30HBJBhopal HabibGanj (5)X  14:38 14:33-14:40 14:35-2m12-298.115496mWCRHabibGanj, Madhya Pradesh
31BPLBhopal Junction (6)  15:05 15:00-15:10 15:05-5m22-291.874497mWCRBhopal, Madhya Pradesh
32SCISanchi (2)XO  15:41-15:43-2m22-247.743428mWCRRaisen, Madhya Pradesh
33BHSVidisha (3)  15:56-15:58-2m12-238.370 WCRVidisha, Madhya Pradesh
34GLGGulabhGanj (3)  16:16-16:18-2m12-217.392 WCRVidisha, Madhya Pradesh
35BAQGanj Basoda (4)X  16:30-16:32-2m12-199.071 WCRVidisha, Madhya Pradesh
36MABAMandi Bamora (3)XO  16:56-16:58-2m12-170.525413mWCRState Highway 14, Madhya Pradesh
37BINABina Junction (5)X  17:40-17:45-5m32-153.258414mWCRJn Pt - KATNI/GUNA/ BPL/JHS, Madhya Pradesh
38DUADhaura (3)X  18:21-18:23-2m--2-118.658407mNCRDhaura Tanda, Madhya Pradesh
39JLNJakhalaun (3)  18:36 18:35-18:37-1 2m12-107.172394mNCRLalitpur(05176-272220), Uttar Pradesh
40LARLalitpur (3)  18:51-18:53-2m32-90.386373mNCRLalitpur, Uttar Pradesh
41TBTTalbahat (4)X  19:21-19:23-2m32-50.459314mNCRKhaniyadhana Station Rd, Madhya Pradesh
42BZYBasai (3)  19:36-19:38-2m22-37.660287mNCR07522289600(Gate ManMob. - 9452701575), Madhya Pradesh
43BABBabina (3)X  19:50-19:52-2m12-25.540285mNCRBabina, Uttar Pradesh
44JHSJhansi Junction (7)»X  20:30-20:38-8m520.068259mNCRJhansi, Uttar Pradesh
45DAADatia (2)X  21:00-21:02-2m--225.063264mNCRDatia, Madhya Pradesh
46SORSonagir (2)X  21:13-21:15-2m--236.671211mNCRDatia, Madhya Pradesh
47DBADabra (3)X  21:31-21:33-2m--255.469 NCRDabra(District-Gwalior), Madhya Pradesh
48GWLGwalior Junction (4)X  22:10-22:18-8m2297.793214mNCRGwalior, Madhya Pradesh
49MRAMorena (3)X  22:43-22:45-2m22136.370176mNCRMorena, Madhya Pradesh
50DHODholpur Junction (3)X  23:08-23:10-2m12163.154177mNCRDholpur, Rajasthan
51AGCAgra Cantt. (6)X  00:08-00:18 00:16-10 8m23215.727174mNCRAgra, Uttar Pradesh
52RKMRaja Ki Mandi (4)  00:25-00:27-2m13219.769170mNCRAgra, Uttar Pradesh
53MTJMathura Junction (10)  01:10-01:20 01:15-10 5m33269.475179mNCRMathura, Uttar Pradesh
54KSVKosi Kalan (3)  01:48-01:50-2m13310.844189mNCRKosi Kalan, Uttar Pradesh
55PWLPalwal (8)  02:48-02:50-2m--3353.371200mNRPalwal, Haryana
56BVHBallabgarh (5)  03:08-03:10-2m33374.544203mNRFaridabad, Haryana
57FDBFaridabad (4)  03:21-03:23-2m23382.652206mNRold Faridabad, Haryana
58NZMDelhi Hazrat Nizamuddin (7)•O  03:47-03:49-2m33403.317209mNRNew Delhi 110013, Delhi NCT
59NDLSNew Delhi (16)  04:10 04:15-04:30-20 15m23410.715215mNRNew Delhi, Delhi NCT
60SZMDelhi Sabzi Mandi (2)X  04:46-04:48-2m--3414.849220mNRGulabi Bagh, Delhi NCT
61BHDBadli (2)XO  05:01-05:03-2m--3425.551217mNRRohini, Delhi NCT
62NURNarela (2)X  05:17 05:18-05:19 05:20-2m--3438.137222mNRNarela, Delhi NCT
63SNPSonipat (3)X  05:46 05:48-05:48 05:50-2m--3455.260225mNRSonipat, Haryana
64GNUGanaur  06:00 06:06-06:02 06:08-2m--3471.157222mNRGanaur, Haryana
65SMKSamalkha (3)  06:21-06:23-2m--3483.454229mNRSamalkha, Haryana
66PNPPanipat Junction (5)  06:38 06:42-06:40 06:44-2m33500.364235mNRPanipat, Haryana
67GRAGharaunda (2)  07:00-07:02-2m--3517.366244mNRGharaunda, Haryana
68KUNKarnal (3)X  07:18-07:20-2m23534.852253mNRKarnal, Haryana
69TRRTaraori (2)  07:34-07:36 07:35-2 1m--3546.926255mNRTaraori, Haryana
70NLKRNilokheriXO  07:44-07:46 07:45-2 1m--3550.834254mNRNilokheri, Haryana
71KKDEKurukshetra Junction (3)  08:20 08:15-08:22 08:17-2m13567.878260mNRKurukshetra, Haryana
72SHDMShahbad Markanda (2)X  08:43 08:34-08:45 08:36-2m23590.027267mNRShahabad Markanda, Haryana
73UMBAmbala Cantt. Junction (7)X09:20-09:40-20m63609.938278mNRAmbala 133001, Haryana
74UBCAmbala City (3)X  09:52-09:54-2m33617.582273mNRNH-1, Haryana
75RPJRajpura Junction (3)  10:11 10:09-10:13 10:11-2m13638.055272mNRNH-1, Punjab
76PTAPatiala (4)X  10:35 10:38-10:40-5 2m13662.852256mNRPatiala, Punjab
77NBANabha (1)  11:08 11:10-11:10 11:12-2m13688.749250mNRNabha, Punjab
78DUIDhuri Junction (4)  11:45-11:50-5m--3715.672248mNRDhuri, Punjab
79METMalerkotla (2)X  12:07 12:04-12:09 12:06-2m13732.428248mNRMalerkotla., Punjab
80AHHAhmadgarh (1)  12:48-12:50-2m13752.344256mNRAhmedgarh, Punjab
81LDHLudhiana Junction (7)X  13:25-13:35-10m33777.734246mNRLudhiana 141001, Punjab
82PHRPhillaur Junction (3)X  13:58-14:00-2m23790.864246mNRPhillaur, Punjab
83GRYGoraya (2)X  14:12-14:14-2m23803.554240mNRGoraya, Punjab
84PGWPhagwara Junction (3)X  14:25-14:27-2m23813.470245mNRPhagwara, Punjab
85JRCJalandhar Cantt. Junction (3)X  14:41-14:43-2m13829.724239mNRNear Rama Mandi, Punjab
86JUCJalandhar City Junction (5)  14:55-15:00-5m13834.556239mNRJalandhar 144001, Punjab
87BEASBeas Junction (2)X  15:39-15:41-2m13870.680238mNRBeas, Punjab
88JNLJandiala (2)X  15:59-16:01-2m13894.440238mNRJandiala, Punjab
89ASRAmritsar Junction (5)  16:30--43913.6-233mNRAmritsar 143002, Punjab
Scroll to Top
Scroll to Bottom